createdAt,value
2022-10-22T00:01:17.197Z,1.63
2022-10-22T00:03:45.493Z,1.40
2022-10-22T00:06:14.071Z,1.13
2022-10-22T00:08:42.296Z,0.97
2022-10-22T00:11:14.688Z,1.33
2022-10-22T00:13:43.467Z,1.17
2022-10-22T00:16:12.471Z,1.40
2022-10-22T00:18:43.144Z,1.33
2022-10-22T00:21:11.372Z,1.23
2022-10-22T00:23:42.513Z,1.07
2022-10-22T00:26:12.849Z,1.10
2022-10-22T00:28:41.670Z,1.90
2022-10-22T00:31:09.933Z,0.90
2022-10-22T00:33:38.476Z,1.20
2022-10-22T00:36:07.119Z,1.23
2022-10-22T00:38:35.821Z,1.20
2022-10-22T00:41:05.520Z,0.90
2022-10-22T00:43:35.317Z,1.10
2022-10-22T00:46:03.472Z,1.23
2022-10-22T00:48:34.540Z,1.10
2022-10-22T00:51:07.582Z,1.30
2022-10-22T00:53:38.606Z,1.07
2022-10-22T00:56:07.907Z,1.40
2022-10-22T00:58:42.867Z,1.00
2022-10-22T01:01:16.246Z,0.90
2022-10-22T01:03:44.903Z,0.97
2022-10-22T01:06:20.227Z,1.37
2022-10-22T01:09:02.681Z,2.20
2022-10-22T01:11:39.240Z,1.27
2022-10-22T01:14:18.890Z,1.10
2022-10-22T01:16:56.155Z,1.47
2022-10-22T01:19:49.009Z,1.50
2022-10-22T01:22:22.157Z,1.30
2022-10-22T01:25:12.292Z,1.60
2022-10-22T01:27:58.547Z,1.00
2022-10-22T01:30:28.520Z,2.03
2022-10-22T01:33:02.847Z,1.30
2022-10-22T01:38:11.682Z,1.50
2022-10-22T01:40:40.588Z,1.30
2022-10-22T01:43:11.413Z,2.20
2022-10-22T01:45:44.363Z,1.77
2022-10-22T01:48:32.268Z,1.87
2022-10-22T01:51:39.821Z,1.43
2022-10-22T01:54:20.412Z,1.43
2022-10-22T01:57:00.269Z,1.57
2022-10-22T01:59:39.126Z,1.23
2022-10-22T02:02:18.313Z,1.50
2022-10-22T02:04:50.879Z,1.57
2022-10-22T02:07:26.796Z,1.73
2022-10-22T02:09:57.291Z,1.47
2022-10-22T02:12:28.169Z,1.80
2022-10-22T02:14:58.676Z,1.50
2022-10-22T02:17:30.302Z,1.57
2022-10-22T02:20:01.742Z,1.63
2022-10-22T02:22:31.058Z,1.10
2022-10-22T02:24:59.509Z,1.43
2022-10-22T02:27:32.001Z,1.13
2022-10-22T02:30:05.509Z,0.90
2022-10-22T02:32:41.035Z,1.30
2022-10-22T02:35:12.091Z,1.20
2022-10-22T02:37:42.440Z,0.97
2022-10-22T02:40:11.511Z,1.90
2022-10-22T02:42:41.199Z,1.20
2022-10-22T02:45:10.524Z,1.60
2022-10-22T02:47:40.407Z,1.43
2022-10-22T02:50:10.562Z,1.50
2022-10-22T02:52:39.662Z,1.87
2022-10-22T02:55:08.880Z,1.53
2022-10-22T02:57:37.354Z,1.53
2022-10-22T03:00:07.530Z,1.37
2022-10-22T03:02:37.072Z,1.33
2022-10-22T03:05:07.412Z,1.50
2022-10-22T03:07:35.622Z,1.20
2022-10-22T03:10:05.550Z,1.33
2022-10-22T03:12:33.783Z,1.20
2022-10-22T03:15:02.338Z,1.23
2022-10-22T03:17:30.557Z,1.10
2022-10-22T03:19:58.757Z,1.30
2022-10-22T03:22:30.705Z,0.97
2022-10-22T03:25:02.700Z,1.20
2022-10-22T03:27:31.492Z,1.03
2022-10-22T03:30:00.908Z,1.20
2022-10-22T03:32:29.364Z,1.23
2022-10-22T03:34:57.584Z,0.90
2022-10-22T03:37:28.531Z,0.93
2022-10-22T03:39:56.989Z,1.17
2022-10-22T03:42:25.773Z,1.00
2022-10-22T03:44:54.234Z,1.07
2022-10-22T03:47:24.483Z,0.90
2022-10-22T03:49:52.894Z,1.47
2022-10-22T03:52:21.103Z,0.80
2022-10-22T03:54:51.110Z,0.93
2022-10-22T03:57:19.421Z,0.90
2022-10-22T03:59:48.297Z,2.33
2022-10-22T04:02:16.536Z,0.90
2022-10-22T04:04:45.046Z,0.70
2022-10-22T04:07:13.266Z,0.87
2022-10-22T04:09:41.532Z,0.97
2022-10-22T04:12:11.239Z,1.00
2022-10-22T04:14:39.690Z,0.90
2022-10-22T04:17:07.941Z,1.10
2022-10-22T04:19:36.093Z,1.20
2022-10-22T04:22:04.249Z,0.60
2022-10-22T04:24:33.508Z,0.90
2022-10-22T04:27:01.724Z,1.00
2022-10-22T04:29:31.327Z,0.77
2022-10-22T04:31:59.848Z,0.87
2022-10-22T04:34:29.645Z,0.80
2022-10-22T04:36:57.855Z,1.00
2022-10-22T04:39:26.060Z,0.87
2022-10-22T04:41:54.208Z,1.00
2022-10-22T04:44:22.401Z,1.00
2022-10-22T04:46:52.524Z,0.90
2022-10-22T04:49:20.750Z,0.80
2022-10-22T04:51:48.954Z,1.47
2022-10-22T04:54:17.292Z,0.80
2022-10-22T04:56:45.573Z,0.90
2022-10-22T04:59:13.952Z,0.73
2022-10-22T05:01:44.854Z,1.10
2022-10-22T05:04:18.109Z,0.80
2022-10-22T05:06:46.722Z,0.80
2022-10-22T05:09:17.372Z,0.70
2022-10-22T05:11:48.746Z,1.00
2022-10-22T05:14:18.441Z,0.70
2022-10-22T05:16:48.744Z,0.70
2022-10-22T05:19:24.086Z,0.70
2022-10-22T05:21:52.545Z,0.70
2022-10-22T05:24:20.751Z,1.00
2022-10-22T05:26:50.981Z,0.70
2022-10-22T05:29:20.087Z,1.00
2022-10-22T05:31:48.348Z,1.03
2022-10-22T05:34:17.224Z,0.73
2022-10-22T05:36:47.394Z,0.80
2022-10-22T05:39:15.660Z,0.93
2022-10-22T05:41:43.856Z,0.60
2022-10-22T05:44:13.965Z,0.70
2022-10-22T05:46:43.497Z,0.60
2022-10-22T05:49:15.281Z,0.60
2022-10-22T05:51:43.524Z,0.80
2022-10-22T05:54:19.263Z,0.60
2022-10-22T05:56:47.634Z,0.80
2022-10-22T05:59:16.115Z,0.87
2022-10-22T06:01:44.950Z,0.60
2022-10-22T06:04:14.564Z,1.03
2022-10-22T06:06:46.505Z,0.70
2022-10-22T06:09:19.255Z,0.70
2022-10-22T06:11:48.059Z,0.70
2022-10-22T06:14:16.672Z,0.50
2022-10-22T06:16:45.203Z,0.80
2022-10-22T06:19:15.223Z,1.20
2022-10-22T06:21:43.704Z,0.90
2022-10-22T06:24:12.957Z,0.80
2022-10-22T06:26:42.803Z,0.70
2022-10-22T06:29:11.688Z,1.47
2022-10-22T06:31:39.910Z,0.60
2022-10-22T06:34:11.547Z,1.10
2022-10-22T06:39:12.513Z,0.70
2022-10-22T06:41:42.183Z,0.70
2022-10-22T06:44:15.021Z,0.60
2022-10-22T06:46:43.691Z,0.60
2022-10-22T06:49:14.170Z,0.70
2022-10-22T06:51:43.959Z,0.60
2022-10-22T06:54:12.489Z,0.77
2022-10-22T06:56:42.359Z,0.53
2022-10-22T06:59:10.785Z,0.87
2022-10-22T07:01:40.473Z,0.73
2022-10-22T07:04:09.764Z,0.60
2022-10-22T07:06:38.084Z,0.60
2022-10-22T07:09:06.439Z,0.70
2022-10-22T07:11:41.299Z,0.70
2022-10-22T07:14:11.485Z,0.60
2022-10-22T07:16:42.155Z,0.83
2022-10-22T07:19:10.624Z,1.03
2022-10-22T07:21:39.093Z,0.70
2022-10-22T07:24:07.967Z,0.53
2022-10-22T07:26:37.015Z,0.60
2022-10-22T07:29:06.317Z,0.73
2022-10-22T07:31:35.997Z,0.57
2022-10-22T07:34:04.283Z,0.60
2022-10-22T07:36:32.494Z,0.90
2022-10-22T07:39:01.758Z,0.50
2022-10-22T07:41:31.145Z,0.60
2022-10-22T07:44:00.200Z,1.20
2022-10-22T07:46:28.736Z,0.63
2022-10-22T07:48:58.589Z,0.63
2022-10-22T07:51:27.111Z,0.83
2022-10-22T07:53:55.824Z,0.50
2022-10-22T07:56:24.035Z,0.80
2022-10-22T07:58:52.281Z,0.70
2022-10-22T08:01:20.632Z,1.37
2022-10-22T08:03:49.112Z,0.77
2022-10-22T08:06:18.965Z,0.70
2022-10-22T08:08:47.654Z,0.70
2022-10-22T08:11:16.303Z,0.77
2022-10-22T08:13:45.900Z,0.97
2022-10-22T08:16:14.796Z,0.70
2022-10-22T08:18:43.599Z,0.60
2022-10-22T08:21:12.037Z,0.80
2022-10-22T08:23:41.773Z,0.70
2022-10-22T08:26:10.930Z,0.93
2022-10-22T08:28:39.245Z,0.70
2022-10-22T08:31:09.148Z,1.10
2022-10-22T08:33:38.867Z,0.90
2022-10-22T08:36:10.270Z,0.80
2022-10-22T08:38:38.789Z,1.83
2022-10-22T08:41:14.965Z,0.60
2022-10-22T08:44:09.664Z,0.63
2022-10-22T08:46:53.947Z,0.70
2022-10-22T08:49:25.634Z,1.17
2022-10-22T08:51:54.666Z,0.80
2022-10-22T08:54:34.605Z,0.93
2022-10-22T09:00:05.198Z,0.70
2022-10-22T09:02:41.457Z,0.63
2022-10-22T09:05:30.853Z,0.50
2022-10-22T09:07:59.323Z,0.47
2022-10-22T09:10:30.693Z,0.93
2022-10-22T09:13:00.501Z,1.37
2022-10-22T09:15:31.415Z,0.70
2022-10-22T09:18:17.517Z,0.70
2022-10-22T09:20:51.205Z,0.60
2022-10-22T09:23:28.629Z,0.70
2022-10-22T09:25:59.519Z,1.13
2022-10-22T09:28:29.293Z,0.53
2022-10-22T09:33:30.955Z,0.60
2022-10-22T09:36:03.399Z,0.43
2022-10-22T09:38:35.828Z,0.97
2022-10-22T09:41:05.093Z,0.50
2022-10-22T09:43:36.402Z,0.60
2022-10-22T09:46:07.445Z,1.20
2022-10-22T09:48:39.251Z,0.93
2022-10-22T09:51:14.195Z,0.40
2022-10-22T09:53:45.089Z,0.70
2022-10-22T09:56:22.524Z,0.47
2022-10-22T09:58:52.772Z,0.60
2022-10-22T10:01:23.923Z,0.60
2022-10-22T10:03:52.723Z,1.00
2022-10-22T10:06:22.519Z,0.40
2022-10-22T10:08:51.171Z,0.47
2022-10-22T10:11:29.271Z,0.50
2022-10-22T10:14:11.279Z,0.43
2022-10-22T10:16:50.492Z,0.40
2022-10-22T10:19:36.057Z,0.50
2022-10-22T10:22:17.973Z,0.67
2022-10-22T10:25:11.126Z,0.70
2022-10-22T10:27:44.790Z,0.50
2022-10-22T10:30:16.734Z,0.50
2022-10-22T10:33:07.227Z,1.10
2022-10-22T10:35:46.536Z,0.70
2022-10-22T10:38:29.532Z,0.50
2022-10-22T10:41:05.403Z,0.70
2022-10-22T10:43:44.159Z,0.50
2022-10-22T10:46:24.001Z,0.70
2022-10-22T10:48:56.607Z,0.50
2022-10-22T10:51:42.659Z,0.47
2022-10-22T10:54:24.317Z,0.60
2022-10-22T10:56:56.935Z,0.70
2022-10-22T10:59:38.746Z,0.40
2022-10-22T11:02:49.144Z,0.50
2022-10-22T11:05:29.477Z,0.40
2022-10-22T11:08:08.087Z,0.40
2022-10-22T11:10:41.783Z,0.40
2022-10-22T11:13:16.518Z,0.50
2022-10-22T11:15:49.861Z,0.50
2022-10-22T11:18:26.187Z,1.00
2022-10-22T11:21:07.611Z,0.60
2022-10-22T11:23:41.330Z,0.40
2022-10-22T11:26:16.361Z,0.47
2022-10-22T11:28:49.925Z,0.50
2022-10-22T11:31:20.386Z,0.50
2022-10-22T11:34:04.813Z,0.50
2022-10-22T11:36:44.769Z,0.97
2022-10-22T11:39:33.469Z,0.50
2022-10-22T11:42:05.252Z,0.30
2022-10-22T11:44:46.787Z,0.60
2022-10-22T11:47:20.683Z,0.80
2022-10-22T11:49:59.722Z,0.70
2022-10-22T11:52:39.825Z,1.03
2022-10-22T11:55:34.725Z,0.70
2022-10-22T11:58:04.079Z,0.50
2022-10-22T12:00:41.908Z,0.80
2022-10-22T12:03:20.690Z,5.17
2022-10-22T12:06:08.540Z,0.90
2022-10-22T12:08:44.950Z,0.60
2022-10-22T12:11:21.784Z,0.80
2022-10-22T12:14:00.374Z,0.70
2022-10-22T12:16:44.039Z,0.70
2022-10-22T12:19:26.106Z,0.57
2022-10-22T12:21:58.711Z,0.60
2022-10-22T12:24:27.557Z,0.47
2022-10-22T12:26:56.052Z,0.40
2022-10-22T12:29:26.721Z,0.33
2022-10-22T12:31:55.223Z,0.50
2022-10-22T12:34:25.152Z,0.30
2022-10-22T12:36:56.300Z,0.40
2022-10-22T12:39:28.387Z,0.60
2022-10-22T12:41:57.056Z,0.50
2022-10-22T12:44:25.379Z,0.30
2022-10-22T12:46:56.884Z,0.30
2022-10-22T12:49:35.747Z,0.30
2022-10-22T12:52:10.891Z,0.30
2022-10-22T12:54:42.420Z,0.30
2022-10-22T12:57:15.967Z,0.50
2022-10-22T12:59:50.021Z,0.30
2022-10-22T13:02:22.696Z,0.60
2022-10-22T13:05:23.909Z,0.30
2022-10-22T13:07:55.297Z,0.40
2022-10-22T13:10:28.494Z,0.70
2022-10-22T13:12:58.886Z,0.40
2022-10-22T13:15:40.750Z,0.40
2022-10-22T13:18:18.821Z,0.50
2022-10-22T13:20:55.145Z,0.30
2022-10-22T13:23:26.609Z,0.80
2022-10-22T13:26:03.726Z,0.50
2022-10-22T13:28:33.843Z,0.40
2022-10-22T13:31:09.949Z,0.40
2022-10-22T13:33:41.016Z,0.53
2022-10-22T13:36:14.008Z,0.60
2022-10-22T13:38:45.553Z,0.50
2022-10-22T13:41:22.115Z,0.43
2022-10-22T13:43:50.872Z,0.50
2022-10-22T13:46:20.146Z,0.50
2022-10-22T13:48:50.078Z,0.40
2022-10-22T13:51:20.585Z,0.70
2022-10-22T13:53:51.736Z,0.47
2022-10-22T13:56:22.936Z,0.60
2022-10-22T13:58:51.693Z,0.40
2022-10-22T14:01:22.816Z,0.40
2022-10-22T14:03:52.572Z,0.50
2022-10-22T14:06:22.504Z,0.53
2022-10-22T14:08:56.547Z,0.50
2022-10-22T14:11:24.919Z,0.90
2022-10-22T14:13:53.494Z,1.23
2022-10-22T14:16:25.664Z,1.23
2022-10-22T14:18:54.829Z,0.77
2022-10-22T14:21:24.839Z,0.40
2022-10-22T14:23:55.202Z,0.50
2022-10-22T14:26:27.476Z,0.60
2022-10-22T14:29:11.943Z,0.60
2022-10-22T14:31:41.668Z,0.60
2022-10-22T14:34:11.908Z,0.60
2022-10-22T14:36:40.429Z,0.60
2022-10-22T14:39:10.083Z,0.80
2022-10-22T14:41:38.682Z,0.50
2022-10-22T14:44:07.679Z,1.23
2022-10-22T14:46:37.321Z,0.47
2022-10-22T14:49:05.589Z,1.43
2022-10-22T14:51:33.919Z,0.90
2022-10-22T14:54:02.215Z,0.90
2022-10-22T14:56:31.922Z,0.90
2022-10-22T14:59:00.232Z,1.10
2022-10-22T15:01:28.679Z,0.90
2022-10-22T15:03:57.340Z,0.90
2022-10-22T15:06:25.589Z,0.70
2022-10-22T15:09:38.142Z,0.67
2022-10-22T15:12:13.581Z,0.50
2022-10-22T15:14:41.941Z,0.60
2022-10-22T15:17:10.156Z,0.60
2022-10-22T15:19:38.803Z,0.60
2022-10-22T15:22:07.217Z,0.60
2022-10-22T15:24:35.834Z,0.63
2022-10-22T15:27:04.431Z,0.60
2022-10-22T15:29:34.530Z,0.67
2022-10-22T15:32:03.175Z,0.70
2022-10-22T15:34:33.380Z,0.70
2022-10-22T15:37:03.932Z,0.80
2022-10-22T15:39:32.749Z,0.80
2022-10-22T15:42:01.012Z,0.53
2022-10-22T15:44:31.945Z,0.60
2022-10-22T15:47:03.814Z,0.70
2022-10-22T15:49:32.435Z,0.50
2022-10-22T15:52:01.016Z,0.60
2022-10-22T15:54:31.383Z,0.67
2022-10-22T15:57:01.992Z,0.60
2022-10-22T15:59:31.942Z,0.67
2022-10-22T16:02:02.023Z,0.50
2022-10-22T16:04:30.515Z,0.60
2022-10-22T16:06:59.317Z,0.63
2022-10-22T16:09:28.930Z,0.80
2022-10-22T16:11:57.681Z,0.70
2022-10-22T16:14:25.908Z,0.67
2022-10-22T16:16:56.641Z,0.70
2022-10-22T16:19:26.883Z,0.60
2022-10-22T16:21:57.152Z,0.63
2022-10-22T16:24:25.380Z,1.10
2022-10-22T16:26:53.977Z,0.80
2022-10-22T16:29:22.305Z,1.23
2022-10-22T16:31:52.108Z,1.40
2022-10-22T16:34:20.318Z,1.30
2022-10-22T16:39:20.881Z,1.57
2022-10-22T16:41:49.071Z,6.10
2022-10-22T16:44:17.514Z,7.10
2022-10-22T16:46:46.098Z,6.00
2022-10-22T16:49:14.484Z,6.00
2022-10-22T16:51:42.885Z,2.77
2022-10-22T16:54:14.203Z,3.40
2022-10-22T16:56:42.470Z,3.33
2022-10-22T16:59:10.739Z,2.90
2022-10-22T17:01:41.299Z,2.73
2022-10-22T17:04:10.569Z,2.60
2022-10-22T17:06:38.966Z,3.87
2022-10-22T17:09:07.293Z,2.93
2022-10-22T17:11:40.143Z,2.30
2022-10-22T17:14:11.377Z,3.07
2022-10-22T17:16:39.971Z,3.13
2022-10-22T17:19:08.417Z,2.43
2022-10-22T17:21:43.193Z,3.20
2022-10-22T17:24:11.961Z,2.63
2022-10-22T17:26:42.035Z,2.53
2022-10-22T17:29:10.703Z,2.40
2022-10-22T17:31:40.435Z,2.67
2022-10-22T17:34:09.637Z,2.17
2022-10-22T17:36:38.884Z,2.33
2022-10-22T17:39:08.826Z,2.63
2022-10-22T17:41:38.724Z,3.23
2022-10-22T17:44:10.121Z,2.53
2022-10-22T17:46:39.648Z,2.40
2022-10-22T17:49:14.319Z,2.53
2022-10-22T17:51:42.663Z,2.80
2022-10-22T17:54:11.239Z,2.67
2022-10-22T17:56:40.428Z,2.80
2022-10-22T17:59:13.728Z,2.73
2022-10-22T18:01:45.705Z,2.83
2022-10-22T18:04:16.870Z,2.90
2022-10-22T18:06:46.817Z,3.00
2022-10-22T18:09:18.591Z,2.53
2022-10-22T18:11:47.810Z,2.97
2022-10-22T18:14:18.587Z,2.50
2022-10-22T18:16:47.496Z,2.10
2022-10-22T18:19:18.013Z,2.27
2022-10-22T18:21:46.624Z,3.20
2022-10-22T18:24:15.523Z,2.50
2022-10-22T18:26:44.286Z,3.20
2022-10-22T18:29:18.217Z,2.10
2022-10-22T18:31:46.749Z,3.10
2022-10-22T18:34:16.649Z,2.80
2022-10-22T18:36:47.359Z,2.50
2022-10-22T18:39:16.922Z,3.13
2022-10-22T18:41:45.218Z,3.00
2022-10-22T18:44:14.912Z,2.00
2022-10-22T18:46:44.686Z,2.63
2022-10-22T18:49:18.286Z,2.27
2022-10-22T18:51:48.686Z,2.53
2022-10-22T18:54:24.717Z,2.83
2022-10-22T18:56:54.863Z,2.27
2022-10-22T18:59:26.757Z,2.40
2022-10-22T19:01:59.560Z,2.40
2022-10-22T19:04:33.272Z,4.60
2022-10-22T19:07:01.925Z,4.70
2022-10-22T19:09:31.619Z,3.20
2022-10-22T19:12:00.204Z,3.63
2022-10-22T19:14:28.788Z,3.70
2022-10-22T19:16:58.434Z,4.07
2022-10-22T19:19:26.726Z,3.80
2022-10-22T19:21:56.597Z,3.40
2022-10-22T19:24:24.861Z,2.73
2022-10-22T19:26:53.091Z,3.77
2022-10-22T19:29:22.361Z,3.33
2022-10-22T19:31:51.881Z,3.07
2022-10-22T19:34:22.062Z,3.50
2022-10-22T19:36:52.157Z,3.13
2022-10-22T19:39:20.874Z,3.73
2022-10-22T19:41:49.313Z,3.30
2022-10-22T19:44:17.609Z,3.80
2022-10-22T19:46:45.909Z,3.20
2022-10-22T19:49:18.887Z,3.23
2022-10-22T19:51:51.762Z,3.80
2022-10-22T19:54:20.609Z,4.90
2022-10-22T19:56:49.766Z,4.57
2022-10-22T19:59:21.150Z,5.03
2022-10-22T20:01:49.679Z,3.90
2022-10-22T20:04:19.207Z,4.17
2022-10-22T20:06:48.100Z,4.97
2022-10-22T20:09:18.184Z,4.00
2022-10-22T20:11:46.628Z,2.97
2022-10-22T20:14:15.287Z,3.50
2022-10-22T20:16:43.887Z,2.63
2022-10-22T20:19:16.282Z,2.23
2022-10-22T20:21:45.570Z,2.90
2022-10-22T20:24:14.355Z,2.13
2022-10-22T20:26:46.895Z,1.50
2022-10-22T20:29:16.080Z,1.73
2022-10-22T20:31:44.398Z,1.30
2022-10-22T20:34:12.690Z,1.20
2022-10-22T20:36:41.352Z,1.80
2022-10-22T20:39:13.410Z,1.40
2022-10-22T20:41:43.284Z,1.57
2022-10-22T20:44:17.277Z,1.10
2022-10-22T20:46:46.106Z,1.30
2022-10-22T20:49:17.101Z,0.93
2022-10-22T20:51:45.781Z,1.20
2022-10-22T20:54:16.245Z,1.70
2022-10-22T20:56:47.958Z,0.87
2022-10-22T20:59:18.284Z,1.73
2022-10-22T21:01:49.438Z,1.33
2022-10-22T21:04:19.637Z,1.40
2022-10-22T21:06:49.944Z,1.30
2022-10-22T21:09:18.372Z,0.70
2022-10-22T21:11:48.738Z,1.43
2022-10-22T21:14:19.941Z,0.77
2022-10-22T21:16:50.117Z,0.73
2022-10-22T21:19:18.909Z,1.43
2022-10-22T21:21:48.437Z,1.23
2022-10-22T21:24:16.812Z,1.27
2022-10-22T21:26:45.444Z,1.10
2022-10-22T21:29:15.359Z,0.80
2022-10-22T21:31:43.600Z,1.00
2022-10-22T21:34:13.317Z,0.90
2022-10-22T21:36:42.678Z,1.10
2022-10-22T21:39:11.324Z,1.00
2022-10-22T21:41:39.668Z,1.57
2022-10-22T21:44:08.133Z,1.20
2022-10-22T21:46:38.396Z,0.93
2022-10-22T21:49:06.585Z,1.00
2022-10-22T21:51:38.211Z,1.23
2022-10-22T21:54:06.634Z,0.90
2022-10-22T21:56:37.099Z,1.47
2022-10-22T21:59:06.477Z,1.40
2022-10-22T22:01:36.132Z,1.07
2022-10-22T22:04:08.549Z,1.50
2022-10-22T22:06:37.825Z,1.57
2022-10-22T22:09:07.418Z,1.33
2022-10-22T22:11:37.154Z,1.50
2022-10-22T22:14:06.320Z,1.83
2022-10-22T22:16:35.396Z,1.40
2022-10-22T22:19:08.889Z,1.20
2022-10-22T22:21:39.242Z,1.60
2022-10-22T22:24:08.924Z,1.57
2022-10-22T22:26:37.809Z,1.60
2022-10-22T22:29:06.221Z,1.00
2022-10-22T22:31:37.427Z,1.30
2022-10-22T22:34:09.216Z,1.13
2022-10-22T22:36:44.018Z,1.03
2022-10-22T22:39:18.243Z,1.40
2022-10-22T22:41:50.935Z,1.00
2022-10-22T22:44:19.477Z,1.30
2022-10-22T22:46:47.684Z,1.60
2022-10-22T22:49:17.636Z,1.70
2022-10-22T22:51:46.258Z,1.43
2022-10-22T22:54:14.487Z,1.20
2022-10-22T22:56:42.777Z,1.10
2022-10-22T22:59:12.316Z,2.07
2022-10-22T23:01:41.149Z,0.90
2022-10-22T23:04:13.805Z,1.03
2022-10-22T23:06:43.968Z,0.97
2022-10-22T23:09:14.575Z,1.10
2022-10-22T23:11:44.399Z,1.03
2022-10-22T23:14:14.865Z,1.20
2022-10-22T23:16:51.476Z,0.90
2022-10-22T23:19:22.095Z,1.33
2022-10-22T23:21:53.329Z,1.00
2022-10-22T23:24:23.404Z,1.27
2022-10-22T23:26:52.785Z,0.93
2022-10-22T23:29:22.739Z,0.80
2022-10-22T23:31:52.356Z,0.90
2022-10-22T23:34:23.468Z,0.90
2022-10-22T23:36:53.717Z,0.90
2022-10-22T23:39:23.884Z,0.70
2022-10-22T23:41:53.165Z,0.77
2022-10-22T23:44:21.801Z,0.70
2022-10-22T23:46:50.576Z,0.80
2022-10-22T23:49:19.355Z,0.80
2022-10-22T23:51:47.604Z,0.80
2022-10-22T23:54:19.441Z,0.83
2022-10-22T23:56:48.091Z,0.67
2022-10-22T23:59:16.632Z,0.60
